createdAt,value
2022-12-26T00:01:09.541Z,85.15
2022-12-26T00:04:51.844Z,85.82
2022-12-26T00:07:33.134Z,85.66
2022-12-26T00:10:34.810Z,86.92
2022-12-26T00:13:39.195Z,86.45
2022-12-26T00:16:47.013Z,86.63
2022-12-26T00:19:48.827Z,86.45
2022-12-26T00:22:50.780Z,85.91
2022-12-26T00:25:56.550Z,85.88
2022-12-26T00:28:58.782Z,85.46
2022-12-26T00:32:03.673Z,86.14
2022-12-26T00:35:05.809Z,85.56
2022-12-26T00:38:07.860Z,85.12
2022-12-26T00:41:10.704Z,85.58
2022-12-26T00:44:12.422Z,84.63
2022-12-26T00:47:14.228Z,84.79
2022-12-26T00:50:16.287Z,85.08
2022-12-26T00:53:18.628Z,85.04
2022-12-26T00:56:20.330Z,85.29
2022-12-26T00:59:21.986Z,85.14
2022-12-26T01:02:38.927Z,85.22
2022-12-26T01:05:46.346Z,85.46
2022-12-26T01:08:48.146Z,85.57
2022-12-26T01:11:49.877Z,85.56
2022-12-26T01:14:51.573Z,85.21
2022-12-26T01:17:53.271Z,85.12
2022-12-26T01:21:00.229Z,85.56
2022-12-26T01:24:02.098Z,86.20
2022-12-26T01:27:03.856Z,85.79
2022-12-26T01:30:06.458Z,86.09
2022-12-26T01:33:08.129Z,86.24
2022-12-26T01:36:10.228Z,86.04
2022-12-26T01:39:11.993Z,86.18
2022-12-26T01:42:16.648Z,85.79
2022-12-26T01:45:26.330Z,86.03
2022-12-26T01:48:34.453Z,85.62
2022-12-26T01:51:40.591Z,85.70
2022-12-26T01:54:47.038Z,85.22
2022-12-26T01:57:56.006Z,85.23
2022-12-26T02:00:58.213Z,84.51
2022-12-26T02:04:23.435Z,85.18
2022-12-26T02:07:26.596Z,84.90
2022-12-26T02:10:31.481Z,85.06
2022-12-26T02:13:35.951Z,85.20
2022-12-26T02:16:39.046Z,84.44
2022-12-26T02:20:16.148Z,84.91
2022-12-26T02:23:37.309Z,85.12
2022-12-26T02:26:44.637Z,84.47
2022-12-26T02:30:13.680Z,84.51
2022-12-26T02:33:42.956Z,84.00
2022-12-26T02:37:03.466Z,84.43
2022-12-26T02:40:15.848Z,84.39
2022-12-26T02:43:31.210Z,84.54
2022-12-26T02:47:05.448Z,84.09
2022-12-26T02:50:41.004Z,84.22
2022-12-26T02:54:21.996Z,84.05
2022-12-26T02:57:49.080Z,83.98
2022-12-26T03:01:17.534Z,83.88
2022-12-26T03:04:40.585Z,83.92
2022-12-26T03:08:01.863Z,84.48
2022-12-26T03:11:22.584Z,83.92
2022-12-26T03:14:28.303Z,84.52
2022-12-26T03:17:59.429Z,84.42
2022-12-26T03:21:02.350Z,83.85
2022-12-26T03:24:05.731Z,84.23
2022-12-26T03:27:07.428Z,84.44
2022-12-26T03:30:28.289Z,83.97
2022-12-26T03:33:54.508Z,83.54
2022-12-26T03:37:08.639Z,83.42
2022-12-26T03:41:15.485Z,83.30
2022-12-26T03:44:54.230Z,83.36
2022-12-26T03:48:37.200Z,83.37
2022-12-26T03:52:15.526Z,83.42
2022-12-26T03:55:44.969Z,83.69
2022-12-26T03:59:12.500Z,82.84
2022-12-26T04:02:35.099Z,83.47
2022-12-26T04:05:58.566Z,83.58
2022-12-26T04:09:25.349Z,83.45
2022-12-26T04:12:48.239Z,83.69
2022-12-26T04:16:21.633Z,84.30
2022-12-26T04:19:32.253Z,85.01
2022-12-26T04:23:14.662Z,84.36
2022-12-26T04:26:43.649Z,84.89
2022-12-26T04:30:05.424Z,84.66
2022-12-26T04:33:35.687Z,85.03
2022-12-26T04:37:04.664Z,85.58
2022-12-26T04:40:30.952Z,85.63
2022-12-26T04:43:52.214Z,86.10
2022-12-26T04:46:55.965Z,86.06
2022-12-26T04:50:13.366Z,85.71
2022-12-26T04:53:15.277Z,86.31
2022-12-26T04:56:18.709Z,86.01
2022-12-26T04:59:22.183Z,86.30
2022-12-26T05:02:42.144Z,86.26
2022-12-26T05:06:05.229Z,86.19
2022-12-26T05:09:28.991Z,86.57
2022-12-26T05:12:30.824Z,86.72
2022-12-26T05:15:52.522Z,87.27
2022-12-26T05:19:12.540Z,86.84
2022-12-26T05:22:32.826Z,87.44
2022-12-26T05:26:00.072Z,87.83
2022-12-26T05:29:03.725Z,87.59
2022-12-26T05:32:05.409Z,87.89
2022-12-26T05:35:07.303Z,87.78
2022-12-26T05:38:11.020Z,88.19
2022-12-26T05:41:12.691Z,88.10
2022-12-26T05:44:14.498Z,88.15
2022-12-26T05:47:16.152Z,87.75
2022-12-26T05:50:17.861Z,87.86
2022-12-26T05:53:19.532Z,87.90
2022-12-26T05:56:21.657Z,87.77
2022-12-26T05:59:23.597Z,88.28
2022-12-26T06:02:25.292Z,88.48
2022-12-26T06:05:27.053Z,88.44
2022-12-26T06:08:29.282Z,88.85
2022-12-26T06:11:31.501Z,88.70
2022-12-26T06:14:33.281Z,88.84
2022-12-26T06:17:35.003Z,89.09
2022-12-26T06:20:39.756Z,88.84
2022-12-26T06:23:41.630Z,89.41
2022-12-26T06:26:43.317Z,88.73
2022-12-26T06:29:45.727Z,88.80
2022-12-26T06:32:47.397Z,88.77
2022-12-26T06:35:49.124Z,88.89
2022-12-26T06:38:50.923Z,89.00
2022-12-26T06:41:52.600Z,89.17
2022-12-26T06:44:54.220Z,89.06
2022-12-26T06:47:55.885Z,88.95
2022-12-26T06:50:57.674Z,88.94
2022-12-26T06:54:04.194Z,89.30
2022-12-26T06:57:05.852Z,88.94
2022-12-26T07:00:08.330Z,88.79
2022-12-26T07:03:10.839Z,88.72
2022-12-26T07:06:24.889Z,88.49
2022-12-26T07:09:33.191Z,88.35
2022-12-26T07:12:36.091Z,88.02
2022-12-26T07:15:38.303Z,87.96
2022-12-26T07:18:40.418Z,87.77
2022-12-26T07:21:42.740Z,87.53
2022-12-26T07:24:44.408Z,86.99
2022-12-26T07:27:46.058Z,87.40
2022-12-26T07:30:49.201Z,87.21
2022-12-26T07:33:53.255Z,87.06
2022-12-26T07:36:54.961Z,86.95
2022-12-26T07:39:59.248Z,86.98
2022-12-26T07:43:01.241Z,86.82
2022-12-26T07:46:02.923Z,85.84
2022-12-26T07:49:04.720Z,85.28
2022-12-26T07:52:06.482Z,85.02
2022-12-26T07:55:09.017Z,84.09
2022-12-26T07:58:10.790Z,83.47
2022-12-26T08:01:12.627Z,82.51
2022-12-26T08:04:14.741Z,82.28
2022-12-26T08:07:16.386Z,81.28
2022-12-26T08:10:18.159Z,81.23
2022-12-26T08:13:19.834Z,80.43
2022-12-26T08:16:21.560Z,78.38
2022-12-26T08:19:23.262Z,76.35
2022-12-26T08:22:25.519Z,75.35
2022-12-26T08:25:27.787Z,75.24
2022-12-26T08:28:29.500Z,75.35
2022-12-26T08:31:31.189Z,76.22
2022-12-26T08:34:36.047Z,77.15
2022-12-26T08:37:37.724Z,78.21
2022-12-26T08:40:43.953Z,78.37
2022-12-26T08:47:14.988Z,77.14
2022-12-26T08:50:17.121Z,76.52
2022-12-26T08:53:19.093Z,76.17
2022-12-26T08:56:24.850Z,76.08
2022-12-26T08:59:26.638Z,75.88
2022-12-26T09:02:28.371Z,75.90
2022-12-26T09:05:31.874Z,75.04
2022-12-26T09:08:35.305Z,74.71
2022-12-26T09:11:37.656Z,73.78
2022-12-26T09:14:39.371Z,73.67
2022-12-26T09:17:41.013Z,73.42
2022-12-26T09:20:42.910Z,72.87
2022-12-26T09:23:44.879Z,72.10
2022-12-26T09:26:46.766Z,71.63
2022-12-26T09:29:48.431Z,69.54
2022-12-26T09:32:50.279Z,68.04
2022-12-26T09:35:51.940Z,66.44
2022-12-26T09:38:56.152Z,66.00
2022-12-26T09:42:19.949Z,65.64
2022-12-26T09:45:37.248Z,63.98
2022-12-26T09:48:54.420Z,64.45
2022-12-26T09:52:00.425Z,63.75
2022-12-26T09:55:19.515Z,63.05
2022-12-26T09:58:32.182Z,63.99
2022-12-26T10:01:36.708Z,64.17
2022-12-26T10:04:38.551Z,63.93
2022-12-26T10:07:45.284Z,62.88
2022-12-26T10:10:57.183Z,63.73
2022-12-26T10:14:05.286Z,62.98
2022-12-26T10:17:28.220Z,61.21
2022-12-26T10:20:52.971Z,60.42
2022-12-26T10:24:20.610Z,62.21
2022-12-26T10:27:24.472Z,63.31
2022-12-26T10:30:33.990Z,64.11
2022-12-26T10:33:43.474Z,62.54
2022-12-26T10:36:52.833Z,61.84
2022-12-26T10:40:05.854Z,60.87
2022-12-26T10:43:28.949Z,59.81
2022-12-26T10:46:46.008Z,58.61
2022-12-26T10:49:49.340Z,58.83
2022-12-26T10:52:51.509Z,54.77
2022-12-26T10:55:53.213Z,51.55
2022-12-26T10:59:03.918Z,49.07
2022-12-26T11:02:28.198Z,48.43
2022-12-26T11:06:05.897Z,49.70
2022-12-26T11:08:51.916Z,51.37
2022-12-26T11:11:54.400Z,52.06
2022-12-26T11:15:31.157Z,49.21
2022-12-26T11:18:47.156Z,46.61
2022-12-26T11:21:48.873Z,47.58
2022-12-26T11:25:09.144Z,48.52
2022-12-26T11:28:23.879Z,48.51
2022-12-26T11:31:28.117Z,51.35
2022-12-26T11:34:34.623Z,50.07
2022-12-26T11:37:44.304Z,48.42
2022-12-26T11:41:11.767Z,50.74
2022-12-26T11:44:19.522Z,52.56
2022-12-26T11:47:25.593Z,53.64
2022-12-26T11:50:30.290Z,53.89
2022-12-26T11:53:34.569Z,54.03
2022-12-26T11:56:36.200Z,54.35
2022-12-26T11:59:38.183Z,55.79
2022-12-26T12:02:41.034Z,54.67
2022-12-26T12:05:46.173Z,53.44
2022-12-26T12:09:06.451Z,53.64
2022-12-26T12:12:35.812Z,53.88
2022-12-26T12:15:49.188Z,51.99
2022-12-26T12:18:59.227Z,49.70
2022-12-26T12:22:15.950Z,49.78
2022-12-26T12:25:38.041Z,49.74
2022-12-26T12:28:50.024Z,49.22
2022-12-26T12:32:18.590Z,49.22
2022-12-26T12:35:29.413Z,49.22
2022-12-26T12:38:54.698Z,47.00
2022-12-26T12:42:14.259Z,47.93
2022-12-26T12:45:36.615Z,47.65
2022-12-26T12:48:47.448Z,48.74
2022-12-26T12:52:13.112Z,48.30
2022-12-26T12:55:19.540Z,50.46
2022-12-26T12:58:33.224Z,52.20
2022-12-26T13:01:42.803Z,54.06
2022-12-26T13:04:53.531Z,54.58
2022-12-26T13:08:01.490Z,52.84
2022-12-26T13:11:06.036Z,52.01
2022-12-26T13:14:19.180Z,51.59
2022-12-26T13:17:27.523Z,49.93
2022-12-26T13:20:38.574Z,51.87
2022-12-26T13:24:19.372Z,53.50
2022-12-26T13:27:36.125Z,57.14
2022-12-26T13:30:38.760Z,59.41
2022-12-26T13:33:43.170Z,61.39
2022-12-26T13:36:47.719Z,62.15
2022-12-26T13:39:52.639Z,62.43
2022-12-26T13:43:42.449Z,63.08
2022-12-26T13:46:47.093Z,62.29
2022-12-26T13:49:49.212Z,63.11
2022-12-26T13:52:51.036Z,63.58
2022-12-26T13:56:04.565Z,62.91
2022-12-26T13:59:28.589Z,64.15
2022-12-26T14:03:20.066Z,65.21
2022-12-26T14:06:57.321Z,66.46
2022-12-26T14:10:07.466Z,66.73
2022-12-26T14:13:34.608Z,67.37
2022-12-26T14:16:54.622Z,68.70
2022-12-26T14:20:24.750Z,68.56
2022-12-26T14:24:07.294Z,69.14
2022-12-26T14:27:24.925Z,69.13
2022-12-26T14:30:54.470Z,69.90
2022-12-26T14:34:10.749Z,70.35
2022-12-26T14:37:30.627Z,71.41
2022-12-26T14:40:35.324Z,71.45
2022-12-26T14:43:41.345Z,71.85
2022-12-26T14:46:42.929Z,72.03
2022-12-26T14:49:44.962Z,72.61
2022-12-26T14:52:47.901Z,72.98
2022-12-26T14:56:03.692Z,72.96
2022-12-26T14:59:29.240Z,73.13
2022-12-26T15:02:34.369Z,73.73
2022-12-26T15:05:44.401Z,73.64
2022-12-26T15:09:29.151Z,74.42
2022-12-26T15:12:58.501Z,74.39
2022-12-26T15:16:17.085Z,74.90
2022-12-26T15:19:24.647Z,75.16
2022-12-26T15:23:13.583Z,75.18
2022-12-26T15:26:47.372Z,75.23
2022-12-26T15:29:51.860Z,75.06
2022-12-26T15:33:07.655Z,75.32
2022-12-26T15:36:40.324Z,75.37
2022-12-26T15:39:55.969Z,75.73
2022-12-26T15:43:25.133Z,76.00
2022-12-26T15:46:33.119Z,75.97
2022-12-26T15:49:50.078Z,75.20
2022-12-26T15:53:07.618Z,75.78
2022-12-26T15:56:41.360Z,75.70
2022-12-26T16:00:17.608Z,76.15
2022-12-26T16:03:42.819Z,76.19
2022-12-26T16:07:17.338Z,75.63
2022-12-26T16:10:25.039Z,76.07
2022-12-26T16:13:26.923Z,76.31
2022-12-26T16:16:28.715Z,76.90
2022-12-26T16:19:30.486Z,76.81
2022-12-26T16:22:43.983Z,77.29
2022-12-26T16:25:50.694Z,78.25
2022-12-26T16:28:54.207Z,78.39
2022-12-26T16:32:03.645Z,78.45
2022-12-26T16:35:07.139Z,78.63
2022-12-26T16:38:14.782Z,79.37
2022-12-26T16:41:25.000Z,79.93
2022-12-26T16:44:43.004Z,79.67
2022-12-26T16:47:45.653Z,80.68
2022-12-26T16:50:52.495Z,81.42
2022-12-26T16:53:54.158Z,81.99
2022-12-26T16:57:09.288Z,81.85
2022-12-26T17:00:17.958Z,82.19
2022-12-26T17:03:29.057Z,82.20
2022-12-26T17:06:34.844Z,82.98
2022-12-26T17:09:44.768Z,83.09
2022-12-26T17:12:47.763Z,83.18
2022-12-26T17:15:58.690Z,83.05
2022-12-26T17:19:16.692Z,82.96
2022-12-26T17:22:28.250Z,83.13
2022-12-26T17:25:33.393Z,83.14
2022-12-26T17:28:37.363Z,83.15
2022-12-26T17:31:41.836Z,83.23
2022-12-26T17:34:44.058Z,83.11
2022-12-26T17:37:49.487Z,83.73
2022-12-26T17:41:00.995Z,83.73
2022-12-26T17:44:02.636Z,84.17
2022-12-26T17:47:23.121Z,84.18
2022-12-26T17:50:31.066Z,83.69
2022-12-26T17:53:38.618Z,84.15
2022-12-26T17:56:40.258Z,84.28
2022-12-26T17:59:42.273Z,84.35
2022-12-26T18:02:44.044Z,84.61
2022-12-26T18:05:47.400Z,85.23
2022-12-26T18:08:49.102Z,85.24
2022-12-26T18:11:50.796Z,85.98
2022-12-26T18:14:57.678Z,85.51
2022-12-26T18:18:02.950Z,85.88
2022-12-26T18:21:07.672Z,85.95
2022-12-26T18:24:09.705Z,86.02
2022-12-26T18:27:22.662Z,85.75
2022-12-26T18:30:25.858Z,85.65
2022-12-26T18:33:27.534Z,85.80
2022-12-26T18:36:32.567Z,86.35
2022-12-26T18:39:34.419Z,86.43
2022-12-26T18:42:36.115Z,86.13
2022-12-26T18:45:38.382Z,86.38
2022-12-26T18:48:40.046Z,86.21
2022-12-26T18:51:41.741Z,87.12
2022-12-26T18:54:43.707Z,86.79
2022-12-26T18:57:45.444Z,86.56
2022-12-26T19:00:47.403Z,86.98
2022-12-26T19:03:49.524Z,87.25
2022-12-26T19:06:51.304Z,87.47
2022-12-26T19:09:55.620Z,86.80
2022-12-26T19:13:04.759Z,87.49
2022-12-26T19:16:07.773Z,87.17
2022-12-26T19:19:09.720Z,87.13
2022-12-26T19:22:11.588Z,87.79
2022-12-26T19:25:14.535Z,87.86
2022-12-26T19:28:16.360Z,88.04
2022-12-26T19:31:19.446Z,88.26
2022-12-26T19:34:23.195Z,88.23
2022-12-26T19:37:25.375Z,88.01
2022-12-26T19:40:27.127Z,88.24
2022-12-26T19:43:28.797Z,88.50
2022-12-26T19:46:30.454Z,88.63
2022-12-26T19:49:33.954Z,88.87
2022-12-26T19:52:37.950Z,88.49
2022-12-26T19:55:40.283Z,88.79
2022-12-26T19:58:42.731Z,88.89
2022-12-26T20:01:44.835Z,88.49
2022-12-26T20:04:46.836Z,88.74
2022-12-26T20:07:48.612Z,88.14
2022-12-26T20:10:51.933Z,88.20
2022-12-26T20:13:57.103Z,87.89
2022-12-26T20:17:05.629Z,87.85
2022-12-26T20:20:08.786Z,87.52
2022-12-26T20:23:10.487Z,87.64
2022-12-26T20:26:18.622Z,87.40
2022-12-26T20:29:20.326Z,87.41
2022-12-26T20:32:22.045Z,88.03
2022-12-26T20:35:23.680Z,87.61
2022-12-26T20:38:25.349Z,87.66
2022-12-26T20:41:28.503Z,87.53
2022-12-26T20:44:30.178Z,87.50
2022-12-26T20:47:31.947Z,87.09
2022-12-26T20:50:34.276Z,86.87
2022-12-26T20:53:36.199Z,87.32
2022-12-26T20:56:38.506Z,86.95
2022-12-26T20:59:40.189Z,87.26
2022-12-26T21:02:41.985Z,87.44
2022-12-26T21:05:44.293Z,87.64
2022-12-26T21:08:47.508Z,87.00
2022-12-26T21:11:49.248Z,86.83
2022-12-26T21:14:50.915Z,86.61
2022-12-26T21:17:52.904Z,86.43
2022-12-26T21:20:54.818Z,86.26
2022-12-26T21:24:05.479Z,86.30
2022-12-26T21:27:07.236Z,86.28
2022-12-26T21:30:09.649Z,86.55
2022-12-26T21:33:11.313Z,86.12
2022-12-26T21:36:14.288Z,86.31
2022-12-26T21:39:16.156Z,85.90
2022-12-26T21:42:18.022Z,85.97
2022-12-26T21:45:19.731Z,86.17
2022-12-26T21:48:21.603Z,86.14
2022-12-26T21:51:28.803Z,86.45
2022-12-26T21:54:49.587Z,86.25
2022-12-26T21:57:51.323Z,86.47
2022-12-26T22:00:53.012Z,86.71
2022-12-26T22:04:13.957Z,86.19
2022-12-26T22:07:15.706Z,86.05
2022-12-26T22:10:36.215Z,85.79
2022-12-26T22:13:41.273Z,85.96
2022-12-26T22:16:42.912Z,86.13
2022-12-26T22:19:44.670Z,85.64
2022-12-26T22:22:46.445Z,85.80
2022-12-26T22:25:55.340Z,85.90
2022-12-26T22:28:57.917Z,85.93
2022-12-26T22:32:00.095Z,85.69
2022-12-26T22:35:01.888Z,85.16
2022-12-26T22:38:03.583Z,85.24
2022-12-26T22:41:05.961Z,84.78
2022-12-26T22:44:08.312Z,84.95
2022-12-26T22:47:10.002Z,85.00
2022-12-26T22:50:16.181Z,84.64
2022-12-26T22:53:17.910Z,84.38
2022-12-26T22:56:19.617Z,85.18
2022-12-26T22:59:41.596Z,85.08
2022-12-26T23:02:43.907Z,84.86
2022-12-26T23:05:46.775Z,84.99
2022-12-26T23:08:50.462Z,84.73
2022-12-26T23:12:10.843Z,85.04
2022-12-26T23:15:22.380Z,85.02
2022-12-26T23:19:05.977Z,85.13
2022-12-26T23:22:07.860Z,85.31
2022-12-26T23:25:11.358Z,84.91
2022-12-26T23:28:31.393Z,85.38
2022-12-26T23:31:33.057Z,85.39
2022-12-26T23:34:34.980Z,85.11
2022-12-26T23:37:38.918Z,85.52
2022-12-26T23:40:40.650Z,85.06
2022-12-26T23:43:42.369Z,85.12
2022-12-26T23:46:47.179Z,84.22
2022-12-26T23:49:49.731Z,84.37
2022-12-26T23:52:51.397Z,83.85
2022-12-26T23:55:53.253Z,83.66
2022-12-26T23:58:55.683Z,84.03
